sensor_id;sensor_type;location;lat;lon;timestamp;pressure;altitude;pressure_sealevel;temperature;humidity
74960;BME280;63518;49.572;1.106;2023-11-21T00:01:06;99414.06;;;8.86;100.00
74960;BME280;63518;49.572;1.106;2023-11-21T00:03:35;99414.88;;;8.86;100.00
74960;BME280;63518;49.572;1.106;2023-11-21T00:06:03;99420.78;;;9.09;100.00
74960;BME280;63518;49.572;1.106;2023-11-21T00:08:29;99424.34;;;9.09;100.00
74960;BME280;63518;49.572;1.106;2023-11-21T00:10:56;99403.06;;;8.86;100.00
74960;BME280;63518;49.572;1.106;2023-11-21T00:13:23;99412.09;;;8.96;100.00
74960;BME280;63518;49.572;1.106;2023-11-21T00:15:50;99401.22;;;8.71;100.00
74960;BME280;63518;49.572;1.106;2023-11-21T00:18:17;99417.38;;;8.88;100.00
74960;BME280;63518;49.572;1.106;2023-11-21T00:20:44;99413.63;;;8.74;100.00
74960;BME280;63518;49.572;1.106;2023-11-21T00:23:11;99421.81;;;9.18;100.00
74960;BME280;63518;49.572;1.106;2023-11-21T00:25:38;99417.41;;;9.17;100.00
74960;BME280;63518;49.572;1.106;2023-11-21T00:28:05;99410.31;;;9.11;100.00
74960;BME280;63518;49.572;1.106;2023-11-21T00:30:32;99404.47;;;8.83;100.00
74960;BME280;63518;49.572;1.106;2023-11-21T00:32:59;99419.56;;;8.86;100.00
74960;BME280;63518;49.572;1.106;2023-11-21T00:35:26;99414.72;;;8.73;100.00
74960;BME280;63518;49.572;1.106;2023-11-21T00:37:53;99423.44;;;9.19;100.00
74960;BME280;63518;49.572;1.106;2023-11-21T00:40:20;99429.91;;;9.43;100.00
74960;BME280;63518;49.572;1.106;2023-11-21T00:42:48;99427.53;;;9.27;100.00
74960;BME280;63518;49.572;1.106;2023-11-21T00:45:14;99421.78;;;9.23;100.00
74960;BME280;63518;49.572;1.106;2023-11-21T00:47:41;99440.19;;;9.33;100.00
74960;BME280;63518;49.572;1.106;2023-11-21T00:50:09;99429.75;;;9.24;100.00
74960;BME280;63518;49.572;1.106;2023-11-21T00:52:36;99436.88;;;8.91;100.00
74960;BME280;63518;49.572;1.106;2023-11-21T00:55:04;99426.69;;;8.97;100.00
74960;BME280;63518;49.572;1.106;2023-11-21T00:57:31;99428.88;;;8.95;100.00
74960;BME280;63518;49.572;1.106;2023-11-21T00:59:58;99423.59;;;9.04;100.00
74960;BME280;63518;49.572;1.106;2023-11-21T01:02:24;99437.00;;;9.15;100.00
74960;BME280;63518;49.572;1.106;2023-11-21T01:04:52;99441.06;;;9.23;100.00
74960;BME280;63518;49.572;1.106;2023-11-21T01:07:19;99430.84;;;8.89;100.00
74960;BME280;63518;49.572;1.106;2023-11-21T01:09:47;99436.88;;;8.96;100.00
74960;BME280;63518;49.572;1.106;2023-11-21T01:12:14;99421.28;;;8.82;100.00
74960;BME280;63518;49.572;1.106;2023-11-21T01:14:41;99432.78;;;8.89;100.00
74960;BME280;63518;49.572;1.106;2023-11-21T01:17:07;99441.47;;;9.45;100.00
74960;BME280;63518;49.572;1.106;2023-11-21T01:19:34;99443.41;;;9.06;100.00
74960;BME280;63518;49.572;1.106;2023-11-21T01:22:01;99439.94;;;9.24;100.00
74960;BME280;63518;49.572;1.106;2023-11-21T01:24:28;99424.34;;;9.14;100.00
74960;BME280;63518;49.572;1.106;2023-11-21T01:26:54;99433.91;;;9.22;100.00
74960;BME280;63518;49.572;1.106;2023-11-21T01:29:21;99429.34;;;9.07;100.00
74960;BME280;63518;49.572;1.106;2023-11-21T01:31:48;99440.38;;;9.41;100.00
74960;BME280;63518;49.572;1.106;2023-11-21T01:34:14;99419.19;;;9.03;100.00
74960;BME280;63518;49.572;1.106;2023-11-21T01:36:41;99453.09;;;9.37;100.00
74960;BME280;63518;49.572;1.106;2023-11-21T01:39:08;99445.03;;;9.12;100.00
74960;BME280;63518;49.572;1.106;2023-11-21T01:41:35;99449.00;;;9.30;100.00
74960;BME280;63518;49.572;1.106;2023-11-21T01:44:01;99462.00;;;9.19;100.00
74960;BME280;63518;49.572;1.106;2023-11-21T01:46:29;99433.75;;;9.03;100.00
74960;BME280;63518;49.572;1.106;2023-11-21T01:48:56;99444.47;;;9.10;100.00
74960;BME280;63518;49.572;1.106;2023-11-21T01:51:23;99458.75;;;8.73;100.00
74960;BME280;63518;49.572;1.106;2023-11-21T01:53:50;99458.00;;;9.01;100.00
74960;BME280;63518;49.572;1.106;2023-11-21T01:56:17;99453.88;;;8.59;100.00
74960;BME280;63518;49.572;1.106;2023-11-21T01:58:44;99443.59;;;8.21;100.00
74960;BME280;63518;49.572;1.106;2023-11-21T02:01:13;99451.78;;;8.36;100.00
74960;BME280;63518;49.572;1.106;2023-11-21T02:03:41;99462.16;;;8.54;100.00
74960;BME280;63518;49.572;1.106;2023-11-21T02:06:07;99460.22;;;8.55;100.00
74960;BME280;63518;49.572;1.106;2023-11-21T02:08:35;99451.72;;;8.51;100.00
74960;BME280;63518;49.572;1.106;2023-11-21T02:11:04;99456.47;;;8.85;100.00
74960;BME280;63518;49.572;1.106;2023-11-21T02:13:31;99437.69;;;8.48;100.00
74960;BME280;63518;49.572;1.106;2023-11-21T02:15:59;99455.53;;;8.55;100.00
74960;BME280;63518;49.572;1.106;2023-11-21T02:18:26;99451.94;;;8.60;100.00
74960;BME280;63518;49.572;1.106;2023-11-21T02:20:56;99440.06;;;8.69;100.00
74960;BME280;63518;49.572;1.106;2023-11-21T02:23:23;99439.84;;;8.56;100.00
74960;BME280;63518;49.572;1.106;2023-11-21T02:25:49;99455.34;;;8.42;100.00
74960;BME280;63518;49.572;1.106;2023-11-21T02:28:16;99441.81;;;8.50;100.00
74960;BME280;63518;49.572;1.106;2023-11-21T02:30:52;99458.56;;;8.54;100.00
74960;BME280;63518;49.572;1.106;2023-11-21T02:33:23;99439.28;;;8.64;100.00
74960;BME280;63518;49.572;1.106;2023-11-21T02:35:50;99454.91;;;8.68;100.00
74960;BME280;63518;49.572;1.106;2023-11-21T02:38:21;99453.66;;;8.95;100.00
74960;BME280;63518;49.572;1.106;2023-11-21T02:40:48;99455.97;;;8.78;100.00
74960;BME280;63518;49.572;1.106;2023-11-21T02:43:16;99451.97;;;8.55;100.00
74960;BME280;63518;49.572;1.106;2023-11-21T02:45:43;99434.25;;;8.71;100.00
74960;BME280;63518;49.572;1.106;2023-11-21T02:48:09;99447.25;;;8.60;100.00
74960;BME280;63518;49.572;1.106;2023-11-21T02:50:36;99445.63;;;8.59;100.00
74960;BME280;63518;49.572;1.106;2023-11-21T02:53:04;99444.03;;;8.48;100.00
74960;BME280;63518;49.572;1.106;2023-11-21T02:55:32;99452.31;;;8.38;100.00
74960;BME280;63518;49.572;1.106;2023-11-21T02:58:02;99456.69;;;8.44;100.00
74960;BME280;63518;49.572;1.106;2023-11-21T03:00:30;99450.97;;;8.35;100.00
74960;BME280;63518;49.572;1.106;2023-11-21T03:02:57;99447.94;;;8.32;100.00
74960;BME280;63518;49.572;1.106;2023-11-21T03:05:24;99446.34;;;8.26;100.00
74960;BME280;63518;49.572;1.106;2023-11-21T03:07:51;99457.59;;;8.29;100.00
74960;BME280;63518;49.572;1.106;2023-11-21T03:10:18;99454.47;;;8.51;100.00
74960;BME280;63518;49.572;1.106;2023-11-21T03:12:45;99462.78;;;8.41;100.00
74960;BME280;63518;49.572;1.106;2023-11-21T03:15:12;99456.09;;;8.52;100.00
74960;BME280;63518;49.572;1.106;2023-11-21T03:17:39;99465.81;;;8.34;100.00
74960;BME280;63518;49.572;1.106;2023-11-21T03:20:07;99464.13;;;8.44;100.00
74960;BME280;63518;49.572;1.106;2023-11-21T03:22:37;99471.28;;;8.45;100.00
74960;BME280;63518;49.572;1.106;2023-11-21T03:25:06;99453.97;;;8.39;99.67
74960;BME280;63518;49.572;1.106;2023-11-21T03:27:32;99442.66;;;8.46;100.00
74960;BME280;63518;49.572;1.106;2023-11-21T03:29:59;99463.91;;;8.30;100.00
74960;BME280;63518;49.572;1.106;2023-11-21T03:32:26;99464.38;;;8.52;100.00
74960;BME280;63518;49.572;1.106;2023-11-21T03:34:57;99468.22;;;8.56;100.00
74960;BME280;63518;49.572;1.106;2023-11-21T03:37:25;99468.00;;;8.43;100.00
74960;BME280;63518;49.572;1.106;2023-11-21T03:39:55;99471.44;;;8.68;99.77
74960;BME280;63518;49.572;1.106;2023-11-21T03:42:23;99460.78;;;8.57;100.00
74960;BME280;63518;49.572;1.106;2023-11-21T03:44:50;99435.34;;;8.16;100.00
74960;BME280;63518;49.572;1.106;2023-11-21T03:47:16;99469.28;;;8.55;100.00
74960;BME280;63518;49.572;1.106;2023-11-21T03:49:43;99468.53;;;8.39;100.00
74960;BME280;63518;49.572;1.106;2023-11-21T03:52:10;99494.56;;;8.67;100.00
74960;BME280;63518;49.572;1.106;2023-11-21T03:54:37;99480.19;;;8.81;100.00
74960;BME280;63518;49.572;1.106;2023-11-21T03:57:04;99483.53;;;8.73;100.00
74960;BME280;63518;49.572;1.106;2023-11-21T03:59:30;99499.81;;;8.59;100.00
74960;BME280;63518;49.572;1.106;2023-11-21T04:01:57;99489.13;;;8.52;100.00
74960;BME280;63518;49.572;1.106;2023-11-21T04:04:24;99501.38;;;8.80;100.00
74960;BME280;63518;49.572;1.106;2023-11-21T04:06:51;99491.31;;;8.55;100.00
74960;BME280;63518;49.572;1.106;2023-11-21T04:09:18;99484.88;;;8.80;100.00
74960;BME280;63518;49.572;1.106;2023-11-21T04:11:45;99507.22;;;8.63;100.00
74960;BME280;63518;49.572;1.106;2023-11-21T04:14:13;99505.31;;;8.64;100.00
74960;BME280;63518;49.572;1.106;2023-11-21T04:16:40;99490.88;;;8.28;100.00
74960;BME280;63518;49.572;1.106;2023-11-21T04:19:07;99515.16;;;8.75;100.00
74960;BME280;63518;49.572;1.106;2023-11-21T04:21:37;99526.47;;;8.63;100.00
74960;BME280;63518;49.572;1.106;2023-11-21T04:24:04;99524.88;;;8.57;100.00
74960;BME280;63518;49.572;1.106;2023-11-21T04:26:31;99532.13;;;8.98;100.00
74960;BME280;63518;49.572;1.106;2023-11-21T04:28:58;99527.03;;;8.65;100.00
74960;BME280;63518;49.572;1.106;2023-11-21T04:31:25;99521.56;;;8.55;100.00
74960;BME280;63518;49.572;1.106;2023-11-21T04:33:52;99535.66;;;8.38;100.00
74960;BME280;63518;49.572;1.106;2023-11-21T04:36:19;99533.00;;;8.83;100.00
74960;BME280;63518;49.572;1.106;2023-11-21T04:38:46;99544.31;;;8.76;100.00
74960;BME280;63518;49.572;1.106;2023-11-21T04:41:13;99543.91;;;8.49;100.00
74960;BME280;63518;49.572;1.106;2023-11-21T04:43:39;99552.41;;;8.52;100.00
74960;BME280;63518;49.572;1.106;2023-11-21T04:46:06;99547.41;;;8.64;100.00
74960;BME280;63518;49.572;1.106;2023-11-21T04:48:33;99554.47;;;8.86;100.00
74960;BME280;63518;49.572;1.106;2023-11-21T04:51:00;99562.91;;;8.35;100.00
74960;BME280;63518;49.572;1.106;2023-11-21T04:53:26;99551.03;;;8.50;100.00
74960;BME280;63518;49.572;1.106;2023-11-21T04:55:53;99552.13;;;8.54;100.00
74960;BME280;63518;49.572;1.106;2023-11-21T04:58:20;99556.84;;;8.48;100.00
74960;BME280;63518;49.572;1.106;2023-11-21T05:00:47;99565.34;;;8.52;100.00
74960;BME280;63518;49.572;1.106;2023-11-21T05:03:14;99565.88;;;8.54;99.87
74960;BME280;63518;49.572;1.106;2023-11-21T05:05:41;99573.00;;;8.65;98.35
74960;BME280;63518;49.572;1.106;2023-11-21T05:08:07;99566.41;;;8.66;100.00
74960;BME280;63518;49.572;1.106;2023-11-21T05:10:34;99571.66;;;8.57;100.00
74960;BME280;63518;49.572;1.106;2023-11-21T05:13:04;99555.16;;;8.52;100.00
74960;BME280;63518;49.572;1.106;2023-11-21T05:15:36;99576.09;;;8.48;100.00
74960;BME280;63518;49.572;1.106;2023-11-21T05:18:04;99578.31;;;8.36;100.00
74960;BME280;63518;49.572;1.106;2023-11-21T05:20:32;99592.31;;;8.45;100.00
74960;BME280;63518;49.572;1.106;2023-11-21T05:22:59;99592.28;;;8.60;100.00
74960;BME280;63518;49.572;1.106;2023-11-21T05:25:26;99597.56;;;8.41;100.00
74960;BME280;63518;49.572;1.106;2023-11-21T05:27:53;99587.88;;;8.64;100.00
74960;BME280;63518;49.572;1.106;2023-11-21T05:30:21;99595.06;;;8.45;100.00
74960;BME280;63518;49.572;1.106;2023-11-21T05:32:48;99592.75;;;8.82;100.00
74960;BME280;63518;49.572;1.106;2023-11-21T05:35:16;99592.28;;;8.65;100.00
74960;BME280;63518;49.572;1.106;2023-11-21T05:37:45;99604.38;;;8.64;100.00
74960;BME280;63518;49.572;1.106;2023-11-21T05:40:13;99615.38;;;8.64;100.00
74960;BME280;63518;49.572;1.106;2023-11-21T05:42:40;99597.78;;;8.60;100.00
74960;BME280;63518;49.572;1.106;2023-11-21T05:45:07;99602.28;;;9.05;100.00
74960;BME280;63518;49.572;1.106;2023-11-21T05:47:45;99612.31;;;8.71;100.00
74960;BME280;63518;49.572;1.106;2023-11-21T05:50:15;99617.91;;;8.50;100.00
74960;BME280;63518;49.572;1.106;2023-11-21T05:52:44;99623.91;;;8.62;100.00
74960;BME280;63518;49.572;1.106;2023-11-21T05:55:11;99608.56;;;8.36;100.00
74960;BME280;63518;49.572;1.106;2023-11-21T05:57:39;99634.38;;;8.60;100.00
74960;BME280;63518;49.572;1.106;2023-11-21T06:00:12;99634.16;;;8.36;100.00
74960;BME280;63518;49.572;1.106;2023-11-21T06:02:49;99637.16;;;8.50;100.00
74960;BME280;63518;49.572;1.106;2023-11-21T06:05:24;99644.59;;;8.50;100.00
74960;BME280;63518;49.572;1.106;2023-11-21T06:07:53;99629.97;;;8.64;100.00
74960;BME280;63518;49.572;1.106;2023-11-21T06:10:21;99632.72;;;8.64;100.00
74960;BME280;63518;49.572;1.106;2023-11-21T06:12:51;99632.16;;;8.67;100.00
74960;BME280;63518;49.572;1.106;2023-11-21T06:15:18;99634.94;;;8.57;100.00
74960;BME280;63518;49.572;1.106;2023-11-21T06:17:45;99627.78;;;8.56;100.00
74960;BME280;63518;49.572;1.106;2023-11-21T06:20:16;99654.16;;;8.67;100.00
74960;BME280;63518;49.572;1.106;2023-11-21T06:22:46;99654.13;;;8.83;100.00
74960;BME280;63518;49.572;1.106;2023-11-21T06:25:13;99657.41;;;8.85;100.00
74960;BME280;63518;49.572;1.106;2023-11-21T06:27:42;99659.63;;;8.78;100.00
74960;BME280;63518;49.572;1.106;2023-11-21T06:30:10;99668.75;;;8.63;100.00
74960;BME280;63518;49.572;1.106;2023-11-21T06:32:39;99661.06;;;8.55;100.00
74960;BME280;63518;49.572;1.106;2023-11-21T06:35:08;99663.25;;;8.63;100.00
74960;BME280;63518;49.572;1.106;2023-11-21T06:37:36;99669.88;;;8.52;100.00
74960;BME280;63518;49.572;1.106;2023-11-21T06:40:04;99662.16;;;8.64;100.00
74960;BME280;63518;49.572;1.106;2023-11-21T06:42:31;99659.72;;;8.42;100.00
74960;BME280;63518;49.572;1.106;2023-11-21T06:44:58;99657.78;;;8.53;100.00
74960;BME280;63518;49.572;1.106;2023-11-21T06:47:25;99673.47;;;8.32;100.00
74960;BME280;63518;49.572;1.106;2023-11-21T06:49:52;99678.13;;;8.47;100.00
74960;BME280;63518;49.572;1.106;2023-11-21T06:52:19;99670.44;;;8.44;100.00
74960;BME280;63518;49.572;1.106;2023-11-21T06:54:47;99670.44;;;8.44;100.00
74960;BME280;63518;49.572;1.106;2023-11-21T06:57:14;99677.03;;;8.58;100.00
74960;BME280;63518;49.572;1.106;2023-11-21T06:59:41;99684.19;;;8.59;100.00
74960;BME280;63518;49.572;1.106;2023-11-21T07:02:08;99669.88;;;8.57;100.00
74960;BME280;63518;49.572;1.106;2023-11-21T07:04:36;99706.19;;;8.54;100.00
74960;BME280;63518;49.572;1.106;2023-11-21T07:07:04;99708.09;;;8.68;100.00
74960;BME280;63518;49.572;1.106;2023-11-21T07:09:30;99713.09;;;8.56;100.00
74960;BME280;63518;49.572;1.106;2023-11-21T07:11:57;99710.34;;;8.41;100.00
74960;BME280;63518;49.572;1.106;2023-11-21T07:14:24;99707.00;;;8.54;100.00
74960;BME280;63518;49.572;1.106;2023-11-21T07:16:51;99714.72;;;8.47;100.00
74960;BME280;63518;49.572;1.106;2023-11-21T07:19:19;99724.34;;;8.55;100.00
74960;BME280;63518;49.572;1.106;2023-11-21T07:21:46;99722.16;;;8.72;100.00
74960;BME280;63518;49.572;1.106;2023-11-21T07:24:13;99742.47;;;8.86;100.00
74960;BME280;63518;49.572;1.106;2023-11-21T07:26:40;99731.78;;;8.54;100.00
74960;BME280;63518;49.572;1.106;2023-11-21T07:29:07;99743.34;;;8.56;100.00
74960;BME280;63518;49.572;1.106;2023-11-21T07:31:33;99752.69;;;8.50;100.00
74960;BME280;63518;49.572;1.106;2023-11-21T07:34:03;99749.13;;;8.65;100.00
74960;BME280;63518;49.572;1.106;2023-11-21T07:36:30;99754.59;;;8.39;100.00
74960;BME280;63518;49.572;1.106;2023-11-21T07:38:56;99734.53;;;8.24;100.00
74960;BME280;63518;49.572;1.106;2023-11-21T07:41:23;99752.44;;;8.57;100.00
74960;BME280;63518;49.572;1.106;2023-11-21T07:43:57;99744.72;;;8.33;100.00
74960;BME280;63518;49.572;1.106;2023-11-21T07:46:24;99749.66;;;8.67;100.00
74960;BME280;63518;49.572;1.106;2023-11-21T07:48:53;99758.44;;;8.79;100.00
74960;BME280;63518;49.572;1.106;2023-11-21T07:51:20;99754.59;;;8.75;100.00
74960;BME280;63518;49.572;1.106;2023-11-21T07:53:46;99769.75;;;8.88;100.00
74960;BME280;63518;49.572;1.106;2023-11-21T07:56:13;99769.19;;;8.76;100.00
74960;BME280;63518;49.572;1.106;2023-11-21T07:58:40;99763.13;;;8.89;100.00
74960;BME280;63518;49.572;1.106;2023-11-21T08:01:07;99778.56;;;8.75;100.00
74960;BME280;63518;49.572;1.106;2023-11-21T08:03:34;99767.00;;;8.62;100.00
74960;BME280;63518;49.572;1.106;2023-11-21T08:06:01;99794.25;;;8.69;100.00
74960;BME280;63518;49.572;1.106;2023-11-21T08:08:29;99792.03;;;8.86;100.00
74960;BME280;63518;49.572;1.106;2023-11-21T08:10:56;99803.06;;;8.76;100.00
74960;BME280;63518;49.572;1.106;2023-11-21T08:13:24;99795.09;;;8.80;100.00
74960;BME280;63518;49.572;1.106;2023-11-21T08:15:53;99787.66;;;8.80;100.00
74960;BME280;63518;49.572;1.106;2023-11-21T08:18:20;99827.00;;;8.76;100.00
74960;BME280;63518;49.572;1.106;2023-11-21T08:20:47;99816.00;;;8.96;100.00
74960;BME280;63518;49.572;1.106;2023-11-21T08:23:17;99826.69;;;9.08;100.00
74960;BME280;63518;49.572;1.106;2023-11-21T08:25:44;99817.63;;;8.87;100.00
74960;BME280;63518;49.572;1.106;2023-11-21T08:28:12;99833.06;;;8.88;100.00
74960;BME280;63518;49.572;1.106;2023-11-21T08:30:41;99828.94;;;8.80;100.00
74960;BME280;63518;49.572;1.106;2023-11-21T08:33:08;99843.19;;;9.18;100.00
74960;BME280;63518;49.572;1.106;2023-11-21T08:35:35;99865.00;;;8.74;100.00
74960;BME280;63518;49.572;1.106;2023-11-21T08:38:03;99871.59;;;9.29;100.00
74960;BME280;63518;49.572;1.106;2023-11-21T08:40:30;99879.81;;;9.54;100.00
74960;BME280;63518;49.572;1.106;2023-11-21T08:42:57;99876.00;;;8.84;100.00
74960;BME280;63518;49.572;1.106;2023-11-21T08:45:25;99874.91;;;9.00;100.00
74960;BME280;63518;49.572;1.106;2023-11-21T08:47:55;99861.69;;;9.12;100.00
74960;BME280;63518;49.572;1.106;2023-11-21T08:50:21;99899.94;;;8.68;100.00
74960;BME280;63518;49.572;1.106;2023-11-21T08:52:48;99895.25;;;8.84;100.00
74960;BME280;63518;49.572;1.106;2023-11-21T08:55:15;99894.16;;;9.00;100.00
74960;BME280;63518;49.572;1.106;2023-11-21T08:57:44;99914.28;;;9.16;100.00
74960;BME280;63518;49.572;1.106;2023-11-21T09:00:11;99902.72;;;9.29;100.00
74960;BME280;63518;49.572;1.106;2023-11-21T09:02:39;99906.25;;;8.68;100.00
74960;BME280;63518;49.572;1.106;2023-11-21T09:05:09;99917.56;;;9.03;100.00
74960;BME280;63518;49.572;1.106;2023-11-21T09:07:37;99918.97;;;9.05;100.00
74960;BME280;63518;49.572;1.106;2023-11-21T09:10:05;99921.16;;;8.83;100.00
74960;BME280;63518;49.572;1.106;2023-11-21T09:12:37;99909.59;;;8.81;100.00
74960;BME280;63518;49.572;1.106;2023-11-21T09:15:05;99900.78;;;8.89;100.00
74960;BME280;63518;49.572;1.106;2023-11-21T09:17:33;99892.22;;;8.75;100.00
74960;BME280;63518;49.572;1.106;2023-11-21T09:20:01;99909.88;;;9.10;100.00
74960;BME280;63518;49.572;1.106;2023-11-21T09:22:30;99909.03;;;9.35;100.00
74960;BME280;63518;49.572;1.106;2023-11-21T09:24:58;99921.16;;;9.18;100.00
74960;BME280;63518;49.572;1.106;2023-11-21T09:27:25;99917.31;;;9.40;100.00
74960;BME280;63518;49.572;1.106;2023-11-21T09:29:54;99906.84;;;9.01;100.00
74960;BME280;63518;49.572;1.106;2023-11-21T09:32:21;99915.09;;;9.16;100.00
74960;BME280;63518;49.572;1.106;2023-11-21T09:34:49;99922.00;;;9.29;100.00
74960;BME280;63518;49.572;1.106;2023-11-21T09:37:16;99930.50;;;9.68;100.00
74960;BME280;63518;49.572;1.106;2023-11-21T09:39:43;99930.25;;;9.34;100.00
74960;BME280;63518;49.572;1.106;2023-11-21T09:42:13;99916.50;;;9.04;100.00
74960;BME280;63518;49.572;1.106;2023-11-21T09:45:08;99940.69;;;8.86;100.00
74960;BME280;63518;49.572;1.106;2023-11-21T09:47:40;99954.72;;;8.75;100.00
74960;BME280;63518;49.572;1.106;2023-11-21T09:50:07;99957.53;;;9.15;100.00
74960;BME280;63518;49.572;1.106;2023-11-21T09:52:54;99962.75;;;9.22;100.00
74960;BME280;63518;49.572;1.106;2023-11-21T09:55:21;99915.66;;;8.88;100.00
74960;BME280;63518;49.572;1.106;2023-11-21T09:57:49;99955.28;;;8.87;100.00
74960;BME280;63518;49.572;1.106;2023-11-21T10:00:16;99970.41;;;8.84;100.00
74960;BME280;63518;49.572;1.106;2023-11-21T10:02:44;99951.34;;;8.52;100.00
74960;BME280;63518;49.572;1.106;2023-11-21T10:05:11;99968.16;;;8.61;100.00
74960;BME280;63518;49.572;1.106;2023-11-21T10:07:39;99956.38;;;8.76;100.00
74960;BME280;63518;49.572;1.106;2023-11-21T10:10:08;99973.72;;;8.86;100.00
74960;BME280;63518;49.572;1.106;2023-11-21T10:12:35;99989.19;;;9.18;100.00
74960;BME280;63518;49.572;1.106;2023-11-21T10:15:03;99984.22;;;9.15;100.00
74960;BME280;63518;49.572;1.106;2023-11-21T10:17:35;99981.19;;;9.01;100.00
74960;BME280;63518;49.572;1.106;2023-11-21T10:20:12;99992.75;;;8.98;100.00
74960;BME280;63518;49.572;1.106;2023-11-21T10:22:41;99991.66;;;9.04;100.00
74960;BME280;63518;49.572;1.106;2023-11-21T10:25:11;99989.16;;;9.03;100.00
74960;BME280;63518;49.572;1.106;2023-11-21T10:27:41;100002.41;;;9.11;100.00
74960;BME280;63518;49.572;1.106;2023-11-21T10:30:09;100011.50;;;9.11;100.00
74960;BME280;63518;49.572;1.106;2023-11-21T10:32:39;100012.00;;;8.93;100.00
74960;BME280;63518;49.572;1.106;2023-11-21T10:35:08;100010.97;;;9.30;100.00
74960;BME280;63518;49.572;1.106;2023-11-21T10:37:37;100005.94;;;8.81;100.00
74960;BME280;63518;49.572;1.106;2023-11-21T10:40:09;100010.19;;;8.46;100.00
74960;BME280;63518;49.572;1.106;2023-11-21T10:42:40;100017.41;;;8.62;100.00
74960;BME280;63518;49.572;1.106;2023-11-21T10:45:08;100014.91;;;8.51;100.00
74960;BME280;63518;49.572;1.106;2023-11-21T10:47:40;100032.03;;;8.68;100.00
74960;BME280;63518;49.572;1.106;2023-11-21T10:50:07;100024.72;;;9.04;100.00
74960;BME280;63518;49.572;1.106;2023-11-21T10:52:39;100019.72;;;8.91;100.00
74960;BME280;63518;49.572;1.106;2023-11-21T10:55:16;100016.66;;;8.82;100.00
74960;BME280;63518;49.572;1.106;2023-11-21T10:57:48;100027.41;;;8.94;100.00
74960;BME280;63518;49.572;1.106;2023-11-21T11:00:16;100020.25;;;8.83;100.00
74960;BME280;63518;49.572;1.106;2023-11-21T11:02:53;100030.16;;;8.84;100.00
74960;BME280;63518;49.572;1.106;2023-11-21T11:05:24;100018.31;;;8.83;100.00
74960;BME280;63518;49.572;1.106;2023-11-21T11:07:58;100026.00;;;8.76;100.00
74960;BME280;63518;49.572;1.106;2023-11-21T11:10:28;99997.13;;;8.84;100.00
74960;BME280;63518;49.572;1.106;2023-11-21T11:12:58;100015.03;;;8.81;100.00
74960;BME280;63518;49.572;1.106;2023-11-21T11:15:26;100032.63;;;8.85;100.00
74960;BME280;63518;49.572;1.106;2023-11-21T11:17:54;100025.44;;;8.74;100.00
74960;BME280;63518;49.572;1.106;2023-11-21T11:20:34;100029.09;;;9.10;100.00
74960;BME280;63518;49.572;1.106;2023-11-21T11:28:48;100028.19;;;8.79;100.00
74960;BME280;63518;49.572;1.106;2023-11-21T11:37:00;100045.44;;;8.49;100.00
74960;BME280;63518;49.572;1.106;2023-11-21T11:39:40;100043.59;;;8.70;100.00
74960;BME280;63518;49.572;1.106;2023-11-21T11:42:14;100050.22;;;8.79;100.00
74960;BME280;63518;49.572;1.106;2023-11-21T11:47:19;100032.81;;;8.58;100.00
74960;BME280;63518;49.572;1.106;2023-11-21T11:50:00;100042.97;;;8.53;100.00
74960;BME280;63518;49.572;1.106;2023-11-21T11:55:06;100039.19;;;8.69;100.00
74960;BME280;63518;49.572;1.106;2023-11-21T11:57:34;100042.94;;;8.48;100.00
74960;BME280;63518;49.572;1.106;2023-11-21T12:00:09;100041.38;;;8.67;100.00
74960;BME280;63518;49.572;1.106;2023-11-21T12:02:40;100044.94;;;8.62;100.00
74960;BME280;63518;49.572;1.106;2023-11-21T12:05:11;100042.13;;;8.42;100.00
74960;BME280;63518;49.572;1.106;2023-11-21T12:10:18;100059.34;;;8.85;100.00
74960;BME280;63518;49.572;1.106;2023-11-21T12:12:47;100055.50;;;8.91;100.00
74960;BME280;63518;49.572;1.106;2023-11-21T12:15:14;100065.09;;;8.78;100.00
74960;BME280;63518;49.572;1.106;2023-11-21T12:17:42;100069.19;;;8.65;100.00
74960;BME280;63518;49.572;1.106;2023-11-21T12:20:13;100064.78;;;8.64;100.00
74960;BME280;63518;49.572;1.106;2023-11-21T12:22:53;100067.78;;;8.63;100.00
74960;BME280;63518;49.572;1.106;2023-11-21T12:25:22;100063.63;;;8.55;100.00
74960;BME280;63518;49.572;1.106;2023-11-21T12:27:52;100080.31;;;8.33;100.00
74960;BME280;63518;49.572;1.106;2023-11-21T12:30:21;100082.13;;;8.70;100.00
74960;BME280;63518;49.572;1.106;2023-11-21T12:32:50;100082.34;;;8.58;100.00
74960;BME280;63518;49.572;1.106;2023-11-21T12:35:19;100090.97;;;8.77;100.00
74960;BME280;63518;49.572;1.106;2023-11-21T12:37:46;100087.31;;;8.56;100.00
74960;BME280;63518;49.572;1.106;2023-11-21T12:40:14;100072.69;;;8.56;100.00
74960;BME280;63518;49.572;1.106;2023-11-21T12:42:45;100099.00;;;8.89;100.00
74960;BME280;63518;49.572;1.106;2023-11-21T12:47:44;100096.66;;;8.60;100.00
74960;BME280;63518;49.572;1.106;2023-11-21T12:50:11;100108.88;;;8.85;100.00
74960;BME280;63518;49.572;1.106;2023-11-21T12:52:45;100108.97;;;9.00;100.00
74960;BME280;63518;49.572;1.106;2023-11-21T12:55:18;100112.13;;;8.72;100.00
74960;BME280;63518;49.572;1.106;2023-11-21T12:57:52;100109.56;;;8.55;100.00
74960;BME280;63518;49.572;1.106;2023-11-21T13:00:29;100125.13;;;8.86;100.00
74960;BME280;63518;49.572;1.106;2023-11-21T13:02:58;100116.47;;;8.57;100.00
74960;BME280;63518;49.572;1.106;2023-11-21T13:05:36;100128.94;;;8.75;100.00
74960;BME280;63518;49.572;1.106;2023-11-21T13:08:07;100119.41;;;9.03;100.00
74960;BME280;63518;49.572;1.106;2023-11-21T13:10:36;100135.72;;;9.15;100.00
74960;BME280;63518;49.572;1.106;2023-11-21T13:13:05;100133.28;;;9.29;100.00
74960;BME280;63518;49.572;1.106;2023-11-21T13:15:32;100129.16;;;8.63;100.00
74960;BME280;63518;49.572;1.106;2023-11-21T13:17:59;100120.75;;;8.38;100.00
74960;BME280;63518;49.572;1.106;2023-11-21T13:20:26;100124.97;;;8.51;100.00
74960;BME280;63518;49.572;1.106;2023-11-21T13:22:54;100148.50;;;8.79;100.00
74960;BME280;63518;49.572;1.106;2023-11-21T13:25:23;100144.09;;;8.73;100.00